createdAt,value
2023-03-01T00:01:36.090Z,98834.00
2023-03-01T00:04:11.007Z,98834.00
2023-03-01T00:06:47.172Z,98826.00
2023-03-01T00:09:22.680Z,98828.00
2023-03-01T00:11:57.588Z,98828.00
2023-03-01T00:14:32.534Z,98826.00
2023-03-01T00:17:07.527Z,98829.00
2023-03-01T00:19:42.534Z,98834.00
2023-03-01T00:22:17.528Z,98836.00
2023-03-01T00:24:52.457Z,98829.00
2023-03-01T00:27:27.354Z,98822.00
2023-03-01T00:30:02.405Z,98831.00
2023-03-01T00:32:37.391Z,98831.00
2023-03-01T00:35:12.371Z,98824.00
2023-03-01T00:37:47.493Z,98826.00
2023-03-01T00:40:22.404Z,98837.00
2023-03-01T00:42:57.358Z,98833.00
2023-03-01T00:45:33.839Z,98836.00
2023-03-01T00:48:08.775Z,98822.00
2023-03-01T00:50:43.723Z,98832.00
2023-03-01T00:53:18.683Z,98828.00
2023-03-01T00:55:53.672Z,98827.00
2023-03-01T00:58:29.800Z,98828.00
2023-03-01T01:01:22.849Z,98832.00
2023-03-01T01:04:02.392Z,98838.00
2023-03-01T01:06:45.494Z,98831.00
2023-03-01T01:09:20.526Z,98825.00
2023-03-01T01:11:55.432Z,98824.00
2023-03-01T01:14:30.387Z,98827.00
2023-03-01T01:17:05.857Z,98831.00
2023-03-01T01:19:41.064Z,98822.00
2023-03-01T01:22:15.966Z,98816.00
2023-03-01T01:24:52.181Z,98818.00
2023-03-01T01:27:27.135Z,98815.00
2023-03-01T01:30:02.108Z,98808.00
2023-03-01T01:32:37.753Z,98812.00
2023-03-01T01:35:12.855Z,98800.00
2023-03-01T01:37:47.849Z,98795.00
2023-03-01T01:40:22.798Z,98800.00
2023-03-01T01:42:57.690Z,98788.00
2023-03-01T01:45:36.266Z,98792.00
2023-03-01T01:48:21.246Z,98796.00
2023-03-01T01:51:01.670Z,98798.00
2023-03-01T01:53:37.943Z,98791.00
2023-03-01T01:56:15.393Z,98776.00
2023-03-01T01:58:51.546Z,98776.00
2023-03-01T02:01:26.944Z,98775.00
2023-03-01T02:04:02.160Z,98775.00
2023-03-01T02:06:48.314Z,98766.00
2023-03-01T02:09:24.595Z,98770.00
2023-03-01T02:12:00.340Z,98764.00
2023-03-01T02:14:35.278Z,98761.00
2023-03-01T02:17:13.061Z,98756.00
2023-03-01T02:20:17.572Z,98752.00
2023-03-01T02:22:54.785Z,98749.00
2023-03-01T02:25:48.409Z,98753.00
2023-03-01T02:28:35.165Z,98741.00
2023-03-01T02:31:34.438Z,98746.00
2023-03-01T02:34:14.380Z,98739.00
2023-03-01T02:36:55.069Z,98731.00
2023-03-01T02:39:49.277Z,98734.00
2023-03-01T02:42:31.994Z,98719.00
2023-03-01T02:45:07.336Z,98730.00
2023-03-01T02:47:42.186Z,98726.00
2023-03-01T02:50:30.000Z,98717.00
2023-03-01T02:53:23.118Z,98729.00
2023-03-01T02:55:58.439Z,98721.00
2023-03-01T02:58:41.461Z,98717.00
2023-03-01T03:01:16.950Z,98713.00
2023-03-01T03:03:51.978Z,98710.00
2023-03-01T03:06:27.155Z,98708.00
2023-03-01T03:09:04.775Z,98706.00
2023-03-01T03:11:41.804Z,98705.00
2023-03-01T03:14:18.720Z,98696.00
2023-03-01T03:16:55.991Z,98693.00
2023-03-01T03:19:30.864Z,98697.00
2023-03-01T03:22:05.687Z,98692.00
2023-03-01T03:24:40.578Z,98698.00
2023-03-01T03:27:15.546Z,98698.00
2023-03-01T03:29:50.474Z,98693.00
2023-03-01T03:32:25.380Z,98697.00
2023-03-01T03:35:00.386Z,98691.00
2023-03-01T03:37:54.212Z,98687.00
2023-03-01T03:40:41.567Z,98693.00
2023-03-01T03:43:22.740Z,98691.00
2023-03-01T03:46:00.489Z,98698.00
2023-03-01T03:48:38.871Z,98696.00
2023-03-01T03:51:17.277Z,98683.00
2023-03-01T03:53:52.140Z,98690.00
2023-03-01T03:56:28.644Z,98684.00
2023-03-01T03:59:03.778Z,98675.00
2023-03-01T04:01:38.642Z,98680.00
2023-03-01T04:04:14.139Z,98670.00
2023-03-01T04:06:49.505Z,98670.00
2023-03-01T04:09:24.465Z,98667.00
2023-03-01T04:11:59.312Z,98669.00
2023-03-01T04:14:34.387Z,98669.00
2023-03-01T04:17:09.249Z,98655.00
2023-03-01T04:19:45.000Z,98664.00
2023-03-01T04:22:20.264Z,98662.00
2023-03-01T04:24:55.205Z,98660.00
2023-03-01T04:27:30.381Z,98663.00
2023-03-01T04:30:06.068Z,98654.00
2023-03-01T04:32:41.098Z,98656.00
2023-03-01T04:35:16.105Z,98656.00
2023-03-01T04:37:51.107Z,98655.00
2023-03-01T04:40:26.143Z,98660.00
2023-03-01T04:43:01.737Z,98656.00
2023-03-01T04:45:36.958Z,98660.00
2023-03-01T04:48:11.884Z,98658.00
2023-03-01T04:50:46.832Z,98664.00
2023-03-01T04:53:21.771Z,98665.00
2023-03-01T04:55:57.349Z,98656.00
2023-03-01T04:58:32.441Z,98654.00
2023-03-01T05:01:18.669Z,98658.00
2023-03-01T05:03:53.971Z,98654.00
2023-03-01T05:06:29.146Z,98660.00
2023-03-01T05:09:04.214Z,98659.00
2023-03-01T05:11:44.604Z,98665.00
2023-03-01T05:14:19.569Z,98657.00
2023-03-01T05:16:54.428Z,98666.00
2023-03-01T05:19:29.394Z,98660.00
2023-03-01T05:22:06.929Z,98656.00
2023-03-01T05:24:41.947Z,98655.00
2023-03-01T05:27:16.826Z,98652.00
2023-03-01T05:29:51.731Z,98651.00
2023-03-01T05:32:26.903Z,98654.00
2023-03-01T05:35:01.852Z,98661.00
2023-03-01T05:37:36.775Z,98657.00
2023-03-01T05:40:18.266Z,98650.00
2023-03-01T05:42:57.894Z,98651.00
2023-03-01T05:45:33.514Z,98659.00
2023-03-01T05:48:10.148Z,98664.00
2023-03-01T05:50:46.732Z,98656.00
2023-03-01T05:53:22.140Z,98656.00
2023-03-01T05:55:57.025Z,98654.00
2023-03-01T05:58:32.012Z,98660.00
2023-03-01T06:01:06.846Z,98647.00
2023-03-01T06:03:42.116Z,98642.00
2023-03-01T06:06:16.980Z,98647.00
2023-03-01T06:08:53.861Z,98641.00
2023-03-01T06:11:28.912Z,98638.00
2023-03-01T06:14:05.072Z,98648.00
2023-03-01T06:16:39.920Z,98649.00
2023-03-01T06:19:14.747Z,98650.00
2023-03-01T06:21:49.612Z,98644.00
2023-03-01T06:24:24.542Z,98648.00
2023-03-01T06:26:59.604Z,98650.00
2023-03-01T06:29:34.497Z,98643.00
2023-03-01T06:32:09.755Z,98648.00
2023-03-01T06:34:44.873Z,98634.00
2023-03-01T06:37:19.730Z,98643.00
2023-03-01T06:39:54.656Z,98633.00
2023-03-01T06:42:29.511Z,98647.00
2023-03-01T06:45:06.916Z,98648.00
2023-03-01T06:47:41.811Z,98650.00
2023-03-01T06:50:17.682Z,98653.00
2023-03-01T06:52:57.858Z,98645.00
2023-03-01T06:55:33.574Z,98655.00
2023-03-01T06:58:10.158Z,98649.00
2023-03-01T07:00:45.255Z,98650.00
2023-03-01T07:03:20.454Z,98647.00
2023-03-01T07:05:55.337Z,98641.00
2023-03-01T07:08:30.337Z,98642.00
2023-03-01T07:11:06.611Z,98645.00
2023-03-01T07:13:41.591Z,98646.00
2023-03-01T07:16:16.774Z,98635.00
2023-03-01T07:18:51.659Z,98639.00
2023-03-01T07:21:26.556Z,98639.00
2023-03-01T07:24:01.467Z,98636.00
2023-03-01T07:26:36.750Z,98632.00
2023-03-01T07:29:12.257Z,98633.00
2023-03-01T07:31:47.381Z,98635.00
2023-03-01T07:34:22.409Z,98635.00
2023-03-01T07:36:57.238Z,98631.00
2023-03-01T07:39:32.147Z,98624.00
2023-03-01T07:42:06.982Z,98620.00
2023-03-01T07:44:41.965Z,98622.00
2023-03-01T07:47:16.878Z,98619.00
2023-03-01T07:49:51.715Z,98614.00
2023-03-01T07:52:26.764Z,98615.00
2023-03-01T07:55:01.591Z,98608.00
2023-03-01T07:57:36.452Z,98617.00
2023-03-01T08:00:13.323Z,98607.00
2023-03-01T08:02:48.197Z,98602.00
2023-03-01T08:05:23.147Z,98602.00
2023-03-01T08:07:58.050Z,98607.00
2023-03-01T08:10:32.957Z,98602.00
2023-03-01T08:13:07.803Z,98600.00
2023-03-01T08:15:42.708Z,98598.00
2023-03-01T08:18:19.847Z,98611.00
2023-03-01T08:20:54.704Z,98605.00
2023-03-01T08:23:30.879Z,98605.00
2023-03-01T08:26:21.384Z,98606.00
2023-03-01T08:28:56.970Z,98598.00
2023-03-01T08:31:36.611Z,98594.00
2023-03-01T08:34:16.244Z,98603.00
2023-03-01T08:36:52.683Z,98605.00
2023-03-01T08:39:27.996Z,98605.00
2023-03-01T08:42:02.902Z,98600.00
2023-03-01T08:44:37.773Z,98589.00
2023-03-01T08:47:12.718Z,98585.00
2023-03-01T08:49:47.575Z,98592.00
2023-03-01T08:52:25.752Z,98583.00
2023-03-01T08:55:02.395Z,98583.00
2023-03-01T08:57:37.312Z,98576.00
2023-03-01T09:00:12.689Z,98579.00
2023-03-01T09:02:47.524Z,98576.00
2023-03-01T09:05:22.354Z,98576.00
2023-03-01T09:07:58.830Z,98566.00
2023-03-01T09:10:33.763Z,98575.00
2023-03-01T09:13:08.755Z,98572.00
2023-03-01T09:15:43.597Z,98573.00
2023-03-01T09:18:18.470Z,98564.00
2023-03-01T09:20:55.789Z,98557.00
2023-03-01T09:23:30.642Z,98552.00
2023-03-01T09:26:14.397Z,98546.00
2023-03-01T09:28:52.205Z,98536.00
2023-03-01T09:31:27.098Z,98547.00
2023-03-01T09:34:01.916Z,98546.00
2023-03-01T09:36:37.375Z,98541.00
2023-03-01T09:39:12.213Z,98546.00
2023-03-01T09:42:05.193Z,98539.00
2023-03-01T09:44:52.366Z,98538.00
2023-03-01T09:47:37.066Z,98539.00
2023-03-01T09:50:19.655Z,98545.00
2023-03-01T09:53:24.161Z,98539.00
2023-03-01T09:56:43.515Z,98535.00
2023-03-01T09:59:49.569Z,98525.00
2023-03-01T10:02:48.792Z,98521.00
2023-03-01T10:05:56.938Z,98518.00
2023-03-01T10:08:55.438Z,98513.00
2023-03-01T10:11:37.464Z,98509.00
2023-03-01T10:14:30.627Z,98496.00
2023-03-01T10:17:26.474Z,98492.00
2023-03-01T10:20:31.121Z,98497.00
2023-03-01T10:23:05.982Z,98486.00
2023-03-01T10:26:14.750Z,98477.00
2023-03-01T10:29:11.801Z,98490.00
2023-03-01T10:31:53.860Z,98477.00
2023-03-01T10:34:35.997Z,98470.00
2023-03-01T10:37:13.516Z,98461.00
2023-03-01T10:40:11.273Z,98462.00
2023-03-01T10:42:50.951Z,98456.00
2023-03-01T10:45:35.723Z,98466.00
2023-03-01T10:48:27.212Z,98466.00
2023-03-01T10:51:02.110Z,98472.00
2023-03-01T10:53:43.738Z,98469.00
2023-03-01T10:56:18.625Z,98463.00
2023-03-01T10:59:01.973Z,98453.00
2023-03-01T11:01:37.075Z,98455.00
2023-03-01T11:04:15.522Z,98446.00
2023-03-01T11:07:00.528Z,98439.00
2023-03-01T11:09:41.234Z,98433.00
2023-03-01T11:12:17.599Z,98424.00
2023-03-01T11:14:56.225Z,98418.00
2023-03-01T11:17:39.019Z,98419.00
2023-03-01T11:20:32.608Z,98416.00
2023-03-01T11:23:14.181Z,98405.00
2023-03-01T11:26:06.427Z,98408.00
2023-03-01T11:28:43.821Z,98408.00
2023-03-01T11:31:20.026Z,98396.00
2023-03-01T11:34:23.274Z,98398.00
2023-03-01T11:37:05.316Z,98384.00
2023-03-01T11:39:54.701Z,98386.00
2023-03-01T11:43:09.761Z,98385.00
2023-03-01T11:46:12.927Z,98374.00
2023-03-01T11:49:46.639Z,98372.00
2023-03-01T11:52:42.211Z,98373.00
2023-03-01T11:55:42.262Z,98360.00
2023-03-01T11:58:46.539Z,98357.00
2023-03-01T12:01:39.721Z,98347.00
2023-03-01T12:05:03.906Z,98348.00
2023-03-01T12:08:01.476Z,98339.00
2023-03-01T12:11:02.873Z,98339.00
2023-03-01T12:14:17.198Z,98332.00
2023-03-01T12:17:29.257Z,98326.00
2023-03-01T12:20:37.182Z,98310.00
2023-03-01T12:23:38.574Z,98309.00
2023-03-01T12:26:27.508Z,98312.00
2023-03-01T12:29:27.321Z,98302.00
2023-03-01T12:32:07.997Z,98290.00
2023-03-01T12:34:58.046Z,98291.00
2023-03-01T12:38:26.924Z,98295.00
2023-03-01T12:41:26.228Z,98288.00
2023-03-01T12:44:29.192Z,98284.00
2023-03-01T12:47:54.898Z,98271.00
2023-03-01T12:50:42.454Z,98267.00
2023-03-01T12:53:25.349Z,98252.00
2023-03-01T12:56:07.094Z,98242.00
2023-03-01T12:59:05.201Z,98252.00
2023-03-01T13:02:14.945Z,98243.00
2023-03-01T13:05:42.988Z,98232.00
2023-03-01T13:08:30.200Z,98237.00
2023-03-01T13:11:16.320Z,98233.00
2023-03-01T13:13:52.558Z,98241.00
2023-03-01T13:16:30.944Z,98230.00
2023-03-01T13:19:16.860Z,98239.00
2023-03-01T13:21:57.312Z,98236.00
2023-03-01T13:24:43.382Z,98231.00
2023-03-01T13:27:18.451Z,98235.00
2023-03-01T13:30:06.644Z,98231.00
2023-03-01T13:32:44.223Z,98232.00
2023-03-01T13:35:20.020Z,98232.00
2023-03-01T13:38:56.317Z,98245.00
2023-03-01T13:41:40.370Z,98236.00
2023-03-01T13:44:27.322Z,98238.00
2023-03-01T13:47:08.053Z,98237.00
2023-03-01T13:50:04.675Z,98226.00
2023-03-01T13:52:47.678Z,98226.00
2023-03-01T13:55:31.309Z,98233.00
2023-03-01T13:58:18.116Z,98238.00
2023-03-01T14:01:07.480Z,98228.00
2023-03-01T14:03:43.373Z,98230.00
2023-03-01T14:06:23.388Z,98228.00
2023-03-01T14:09:24.805Z,98217.00
2023-03-01T14:12:27.974Z,98209.00
2023-03-01T14:15:31.779Z,98212.00
2023-03-01T14:18:45.687Z,98217.00
2023-03-01T14:21:20.561Z,98220.00
2023-03-01T14:23:55.477Z,98218.00
2023-03-01T14:26:32.605Z,98224.00
2023-03-01T14:29:11.568Z,98222.00
2023-03-01T14:31:53.386Z,98231.00
2023-03-01T14:34:28.655Z,98238.00
2023-03-01T14:37:35.419Z,98240.00
2023-03-01T14:40:28.870Z,98246.00
2023-03-01T14:43:12.620Z,98243.00
2023-03-01T14:45:51.675Z,98242.00
2023-03-01T14:48:29.604Z,98249.00
2023-03-01T14:51:06.644Z,98239.00
2023-03-01T14:53:50.909Z,98249.00
2023-03-01T14:56:26.228Z,98258.00
2023-03-01T14:59:02.979Z,98247.00
2023-03-01T15:01:38.200Z,98253.00
2023-03-01T15:04:16.558Z,98238.00
2023-03-01T15:06:53.346Z,98248.00
2023-03-01T15:09:28.392Z,98248.00
2023-03-01T15:12:42.109Z,98243.00
2023-03-01T15:15:29.376Z,98244.00
2023-03-01T15:18:25.572Z,98243.00
2023-03-01T15:21:11.462Z,98249.00
2023-03-01T15:23:55.523Z,98235.00
2023-03-01T15:26:43.085Z,98240.00
2023-03-01T15:29:20.637Z,98246.00
2023-03-01T15:32:26.370Z,98238.00
2023-03-01T15:35:39.266Z,98244.00
2023-03-01T15:38:57.605Z,98234.00
2023-03-01T15:41:47.451Z,98239.00
2023-03-01T15:44:41.497Z,98242.00
2023-03-01T15:47:40.476Z,98236.00
2023-03-01T15:50:26.778Z,98240.00
2023-03-01T15:53:09.305Z,98237.00
2023-03-01T15:55:44.788Z,98234.00
2023-03-01T15:58:23.704Z,98224.00
2023-03-01T16:01:01.925Z,98228.00
2023-03-01T16:03:37.563Z,98229.00
2023-03-01T16:06:13.529Z,98218.00
2023-03-01T16:08:48.457Z,98223.00
2023-03-01T16:11:23.643Z,98210.00
2023-03-01T16:13:58.624Z,98214.00
2023-03-01T16:16:34.164Z,98211.00
2023-03-01T16:19:09.297Z,98215.00
2023-03-01T16:21:47.474Z,98212.00
2023-03-01T16:24:23.053Z,98205.00
2023-03-01T16:26:57.953Z,98207.00
2023-03-01T16:29:32.803Z,98217.00
2023-03-01T16:32:09.134Z,98217.00
2023-03-01T16:34:44.258Z,98216.00
2023-03-01T16:37:20.136Z,98212.00
2023-03-01T16:39:56.251Z,98221.00
2023-03-01T16:42:40.512Z,98227.00
2023-03-01T16:45:28.984Z,98216.00
2023-03-01T16:48:04.693Z,98228.00
2023-03-01T16:50:39.841Z,98232.00
2023-03-01T16:53:14.805Z,98222.00
2023-03-01T16:55:58.366Z,98223.00
2023-03-01T16:58:33.636Z,98234.00
2023-03-01T17:01:16.595Z,98241.00
2023-03-01T17:03:52.188Z,98249.00
2023-03-01T17:06:27.610Z,98248.00
2023-03-01T17:09:02.938Z,98255.00
2023-03-01T17:11:39.136Z,98257.00
2023-03-01T17:14:16.983Z,98255.00
2023-03-01T17:16:53.936Z,98257.00
2023-03-01T17:19:29.045Z,98265.00
2023-03-01T17:22:04.252Z,98265.00
2023-03-01T17:24:40.504Z,98254.00
2023-03-01T17:27:15.973Z,98266.00
2023-03-01T17:29:50.979Z,98268.00
2023-03-01T17:32:26.028Z,98279.00
2023-03-01T17:35:01.192Z,98279.00
2023-03-01T17:37:37.379Z,98280.00
2023-03-01T17:40:13.286Z,98274.00
2023-03-01T17:42:48.240Z,98286.00
2023-03-01T17:45:23.298Z,98279.00
2023-03-01T17:47:58.536Z,98287.00
2023-03-01T17:50:34.242Z,98294.00
2023-03-01T17:53:11.908Z,98286.00
2023-03-01T17:55:49.571Z,98286.00
2023-03-01T17:58:24.693Z,98287.00
2023-03-01T18:01:15.297Z,98268.00
2023-03-01T18:03:52.857Z,98281.00
2023-03-01T18:06:29.405Z,98280.00
2023-03-01T18:09:04.773Z,98281.00
2023-03-01T18:11:41.911Z,98272.00
2023-03-01T18:14:16.967Z,98285.00
2023-03-01T18:16:51.913Z,98286.00
2023-03-01T18:19:26.778Z,98281.00
2023-03-01T18:22:01.620Z,98284.00
2023-03-01T18:24:40.318Z,98288.00
2023-03-01T18:27:15.343Z,98287.00
2023-03-01T18:29:50.401Z,98287.00
2023-03-01T18:32:26.520Z,98285.00
2023-03-01T18:35:01.448Z,98282.00
2023-03-01T18:37:37.164Z,98280.00
2023-03-01T18:40:13.900Z,98289.00
2023-03-01T18:42:48.845Z,98286.00
2023-03-01T18:45:24.204Z,98288.00
2023-03-01T18:47:59.195Z,98287.00
2023-03-01T18:50:34.083Z,98286.00
2023-03-01T18:53:10.512Z,98285.00
2023-03-01T18:55:45.644Z,98278.00
2023-03-01T18:58:20.642Z,98266.00
2023-03-01T19:00:55.477Z,98268.00
2023-03-01T19:03:31.297Z,98266.00
2023-03-01T19:06:06.468Z,98258.00
2023-03-01T19:08:42.413Z,98260.00
2023-03-01T19:11:17.882Z,98258.00
2023-03-01T19:13:53.965Z,98261.00
2023-03-01T19:16:32.763Z,98260.00
2023-03-01T19:19:10.201Z,98259.00
2023-03-01T19:21:50.620Z,98246.00
2023-03-01T19:24:28.367Z,98260.00
2023-03-01T19:27:06.911Z,98259.00
2023-03-01T19:29:41.992Z,98249.00
2023-03-01T19:32:16.866Z,98249.00
2023-03-01T19:34:51.819Z,98246.00
2023-03-01T19:37:28.143Z,98245.00
2023-03-01T19:40:03.411Z,98252.00
2023-03-01T19:42:38.323Z,98248.00
2023-03-01T19:45:14.630Z,98252.00
2023-03-01T19:47:50.828Z,98258.00
2023-03-01T19:50:25.699Z,98246.00
2023-03-01T19:53:00.552Z,98238.00
2023-03-01T19:55:37.548Z,98243.00
2023-03-01T19:58:12.976Z,98248.00
2023-03-01T20:00:47.890Z,98239.00
2023-03-01T20:03:22.767Z,98255.00
2023-03-01T20:05:58.494Z,98251.00
2023-03-01T20:08:33.570Z,98250.00
2023-03-01T20:11:11.333Z,98252.00
2023-03-01T20:13:46.722Z,98259.00
2023-03-01T20:16:22.965Z,98257.00
2023-03-01T20:19:00.826Z,98253.00
2023-03-01T20:21:35.723Z,98254.00
2023-03-01T20:24:10.558Z,98263.00
2023-03-01T20:26:45.611Z,98266.00
2023-03-01T20:29:20.439Z,98255.00
2023-03-01T20:31:55.463Z,98252.00
2023-03-01T20:34:30.338Z,98249.00
2023-03-01T20:37:05.175Z,98247.00
2023-03-01T20:39:39.988Z,98250.00
2023-03-01T20:42:15.488Z,98250.00
2023-03-01T20:44:50.296Z,98246.00
2023-03-01T20:47:25.289Z,98243.00
2023-03-01T20:50:01.845Z,98242.00
2023-03-01T20:52:47.103Z,98242.00
2023-03-01T20:55:22.535Z,98246.00
2023-03-01T20:57:57.393Z,98242.00
2023-03-01T21:00:32.273Z,98242.00
2023-03-01T21:03:07.156Z,98241.00
2023-03-01T21:05:41.984Z,98249.00
2023-03-01T21:08:16.806Z,98242.00
2023-03-01T21:10:56.888Z,98250.00
2023-03-01T21:13:32.714Z,98237.00
2023-03-01T21:16:13.709Z,98239.00
2023-03-01T21:18:49.510Z,98246.00
2023-03-01T21:21:24.880Z,98233.00
2023-03-01T21:23:59.743Z,98245.00
2023-03-01T21:26:34.783Z,98243.00
2023-03-01T21:29:09.759Z,98236.00
2023-03-01T21:31:44.710Z,98226.00
2023-03-01T21:34:19.664Z,98236.00
2023-03-01T21:36:54.565Z,98231.00
2023-03-01T21:39:30.094Z,98222.00
2023-03-01T21:42:06.069Z,98217.00
2023-03-01T21:44:40.993Z,98214.00
2023-03-01T21:47:15.836Z,98216.00
2023-03-01T21:49:50.686Z,98223.00
2023-03-01T21:52:25.586Z,98220.00
2023-03-01T21:55:02.941Z,98221.00
2023-03-01T21:57:44.583Z,98211.00
2023-03-01T22:00:23.285Z,98209.00
2023-03-01T22:02:58.250Z,98212.00
2023-03-01T22:05:35.924Z,98206.00
2023-03-01T22:08:10.837Z,98211.00
2023-03-01T22:10:46.182Z,98204.00
2023-03-01T22:13:21.248Z,98203.00
2023-03-01T22:15:56.118Z,98213.00
2023-03-01T22:18:31.066Z,98208.00
2023-03-01T22:21:07.904Z,98210.00
2023-03-01T22:23:44.057Z,98218.00
2023-03-01T22:26:35.836Z,98205.00
2023-03-01T22:29:18.013Z,98204.00
2023-03-01T22:31:55.677Z,98210.00
2023-03-01T22:34:30.632Z,98211.00
2023-03-01T22:37:05.549Z,98207.00
2023-03-01T22:39:40.388Z,98215.00
2023-03-01T22:42:15.327Z,98209.00
2023-03-01T22:44:50.260Z,98203.00
2023-03-01T22:47:25.472Z,98206.00
2023-03-01T22:50:00.303Z,98197.00
2023-03-01T22:52:35.833Z,98199.00
2023-03-01T22:55:11.121Z,98204.00
2023-03-01T22:57:53.395Z,98202.00
2023-03-01T23:00:28.317Z,98206.00
2023-03-01T23:03:03.346Z,98203.00
2023-03-01T23:05:38.322Z,98203.00
2023-03-01T23:08:13.731Z,98207.00
2023-03-01T23:10:48.577Z,98204.00
2023-03-01T23:13:23.422Z,98197.00
2023-03-01T23:15:58.691Z,98197.00
2023-03-01T23:18:33.664Z,98202.00
2023-03-01T23:21:18.916Z,98196.00
2023-03-01T23:23:56.193Z,98191.00
2023-03-01T23:26:31.499Z,98190.00
2023-03-01T23:29:08.031Z,98199.00
2023-03-01T23:31:42.925Z,98185.00
2023-03-01T23:34:18.967Z,98192.00
2023-03-01T23:36:55.413Z,98182.00
2023-03-01T23:39:31.986Z,98185.00
2023-03-01T23:42:08.351Z,98188.00
2023-03-01T23:44:43.358Z,98182.00
2023-03-01T23:47:18.371Z,98183.00
2023-03-01T23:49:53.304Z,98180.00
2023-03-01T23:52:28.159Z,98183.00
2023-03-01T23:55:03.573Z,98188.00
2023-03-01T23:57:38.436Z,98182.00
